Time;durP1;ratioP1;P1;durP2;ratioP2;P2;SDS_P1;SDS_P2;PMS_P1;PMS_P2;Temp;Humidity;BMP_temperature;BMP_pressure;BME280_temperature;BME280_humidity;BME280_pressure;Samples;Min_cycle;Max_cycle;Signal;HPM_P1;HPM_P2
2021/03/14 00:02:12;;;;;;;2.20;2.10;;;;;;;3.11;75.84;99779.47;5317463;26;20047;-72
2021/03/14 00:04:38;;;;;;;2.33;2.22;;;;;;;3.40;76.57;99843.22;5317578;26;20120;-72
2021/03/14 00:07:04;;;;;;;2.10;2.00;;;;;;;2.19;75.96;99658.41;5335041;26;20600;-72
2021/03/14 00:09:30;;;;;;;2.20;2.10;;;;;;;2.57;76.42;99736.50;5317658;26;20393;-72
2021/03/14 00:11:55;;;;;;;2.05;1.95;;;;;;;3.12;76.29;99839.94;5317411;26;20340;-72
2021/03/14 00:14:20;;;;;;;2.20;2.10;;;;;;;3.12;76.71;99851.16;5316314;26;20086;-72
2021/03/14 00:16:46;;;;;;;2.20;2.10;;;;;;;2.50;76.53;99733.25;5317656;26;20477;-72
2021/03/14 00:19:11;;;;;;;2.20;2.10;;;;;;;3.18;76.67;99855.28;5318258;26;20043;-72
2021/03/14 00:21:37;;;;;;;2.20;2.10;;;;;;;2.97;76.82;99833.56;5316430;26;20261;-72
2021/03/14 00:24:02;;;;;;;2.10;2.00;;;;;;;3.11;77.12;99848.63;5317162;26;20051;-72
2021/03/14 00:26:28;;;;;;;2.30;2.20;;;;;;;3.25;76.68;99850.72;5316496;26;20054;-72
2021/03/14 00:28:53;;;;;;;2.37;2.28;;;;;;;3.20;76.55;99850.88;5317142;26;20049;-71
2021/03/14 00:31:18;;;;;;;2.17;2.08;;;;;;;3.04;76.57;99829.00;5316396;26;20453;-71
2021/03/14 00:33:44;;;;;;;2.12;2.03;;;;;;;3.44;76.17;99885.47;5316584;26;20175;-72
2021/03/14 00:36:09;;;;;;;2.20;2.10;;;;;;;3.42;75.87;99879.50;5316758;26;20040;-71
2021/03/14 00:38:34;;;;;;;2.20;2.10;;;;;;;3.45;76.09;99881.97;5317045;26;20039;-72
2021/03/14 00:41:00;;;;;;;2.03;1.92;;;;;;;3.18;76.33;99848.34;5317322;26;20061;-72
2021/03/14 00:43:25;;;;;;;2.20;2.10;;;;;;;3.13;76.17;99841.66;5315651;26;20288;-72
2021/03/14 00:45:50;;;;;;;2.20;2.10;;;;;;;1.89;75.18;99643.00;5316285;26;20045;-72
2021/03/14 00:48:16;;;;;;;2.10;2.00;;;;;;;3.62;75.33;99922.03;5316790;26;20031;-72
2021/03/14 00:50:42;;;;;;;2.20;2.10;;;;;;;3.20;75.50;99866.44;5319814;26;20316;-72
2021/03/14 00:53:07;;;;;;;2.17;2.08;;;;;;;3.63;75.49;99931.50;5320143;26;20389;-72
2021/03/14 00:55:33;;;;;;;2.20;2.10;;;;;;;3.26;75.02;99878.34;5318468;26;20504;-72
2021/03/14 00:57:58;;;;;;;2.10;2.00;;;;;;;3.32;75.22;99871.19;5321332;26;20371;-72
2021/03/14 01:00:24;;;;;;;2.60;2.50;;;;;;;3.23;75.43;99865.47;5336260;26;20043;-72
2021/03/14 01:02:49;;;;;;;2.20;2.10;;;;;;;3.48;75.10;99918.19;5336473;26;20590;-72
2021/03/14 01:05:14;;;;;;;2.30;2.20;;;;;;;2.74;75.06;99801.50;5334613;26;20263;-72
2021/03/14 01:07:40;;;;;;;2.10;2.00;;;;;;;3.54;75.14;99919.72;5334934;26;20485;-72
2021/03/14 01:10:06;;;;;;;2.03;1.92;;;;;;;3.79;74.44;99956.00;5336380;26;20042;-71
2021/03/14 01:12:31;;;;;;;2.20;2.10;;;;;;;3.80;74.81;99955.94;5334778;26;20129;-71
2021/03/14 01:14:56;;;;;;;2.17;2.08;;;;;;;3.78;74.58;99957.75;5335687;26;20047;-72
2021/03/14 01:17:22;;;;;;;2.08;1.98;;;;;;;3.55;74.73;99919.66;5335099;26;20316;-71
2021/03/14 01:19:47;;;;;;;2.10;2.00;;;;;;;3.88;74.50;99966.03;5336376;26;20111;-72
2021/03/14 01:22:12;;;;;;;2.15;2.05;;;;;;;3.50;74.87;99915.53;5335702;26;20040;-71
2021/03/14 01:24:38;;;;;;;2.10;2.00;;;;;;;3.80;75.00;99979.28;5336910;26;20355;-71
2021/03/14 01:27:03;;;;;;;2.10;2.00;;;;;;;2.62;75.03;99778.59;5338659;26;20421;-71
2021/03/14 01:29:28;;;;;;;2.20;2.10;;;;;;;3.78;75.36;99985.44;5337242;26;20055;-72
2021/03/14 01:31:54;;;;;;;2.00;1.90;;;;;;;3.11;75.31;99862.44;5336420;26;20035;-71
2021/03/14 01:34:19;;;;;;;2.15;2.05;;;;;;;3.42;75.66;99927.94;5335463;26;20031;-72
2021/03/14 01:36:44;;;;;;;2.17;2.08;;;;;;;3.77;75.06;99984.59;5336863;26;20364;-72
2021/03/14 01:39:10;;;;;;;2.10;2.00;;;;;;;3.65;75.68;99958.22;5336491;26;20053;-72
2021/03/14 01:41:35;;;;;;;2.30;2.20;;;;;;;3.00;74.77;99864.53;5338782;26;20027;-71
2021/03/14 01:44:01;;;;;;;2.00;1.90;;;;;;;2.32;74.22;99734.72;5337479;26;20043;-72
2021/03/14 01:46:26;;;;;;;2.30;2.20;;;;;;;3.99;73.74;99994.22;5334727;26;20054;-71
2021/03/14 01:48:52;;;;;;;2.10;2.00;;;;;;;3.93;74.59;100007.41;5337165;26;20050;-72
2021/03/14 01:51:17;;;;;;;2.30;2.20;;;;;;;3.92;74.74;100010.91;5335601;26;20031;-71
2021/03/14 01:53:43;;;;;;;2.10;2.00;;;;;;;3.96;74.44;100009.91;5335859;26;20356;-72
2021/03/14 01:56:08;;;;;;;2.22;2.12;;;;;;;3.55;73.86;99940.41;5332965;26;20035;-71
2021/03/14 01:58:34;;;;;;;2.10;2.00;;;;;;;3.76;74.83;99979.47;5335835;26;20035;-72
2021/03/14 02:00:59;;;;;;;2.50;2.30;;;;;;;3.91;73.93;100009.19;5337144;26;20040;-71
2021/03/14 02:03:24;;;;;;;2.22;2.12;;;;;;;3.85;73.82;99994.72;5335008;26;20493;-71
2021/03/14 02:05:50;;;;;;;2.10;2.00;;;;;;;3.87;73.71;100008.50;5335057;26;20049;-72
2021/03/14 02:08:16;;;;;;;2.10;2.00;;;;;;;3.34;74.35;99915.22;5335921;26;20085;-71
2021/03/14 02:10:41;;;;;;;2.10;2.00;;;;;;;3.95;73.93;100013.41;5335250;26;20043;-72
2021/03/14 02:13:08;;;;;;;2.20;2.10;;;;;;;3.94;74.39;100024.69;5336746;26;20039;-71
2021/03/14 02:15:35;;;;;;;2.17;2.08;;;;;;;2.20;73.70;99742.91;5335772;26;20482;-71
2021/03/14 02:18:01;;;;;;;2.10;2.00;;;;;;;3.96;73.63;100025.47;5336429;26;20133;-72
2021/03/14 02:20:28;;;;;;;2.10;2.00;;;;;;;3.12;73.99;99879.66;5336928;26;20039;-71
2021/03/14 02:23:17;;;;;;;2.20;2.10;;;;;;;3.93;73.88;100029.03;5337411;26;20031;-71
2021/03/14 02:25:55;;;;;;;2.12;2.03;;;;;;;3.89;75.12;100031.78;5350700;26;20051;-71
2021/03/14 02:28:20;;;;;;;2.50;2.40;;;;;;;3.23;74.34;99918.19;5331012;26;20228;-71
2021/03/14 02:30:46;;;;;;;2.00;1.90;;;;;;;2.50;74.25;99854.97;5335198;26;20055;-71
2021/03/14 02:33:16;;;;;;;2.08;1.98;;;;;;;3.90;73.49;100013.56;5334659;26;20040;-71
2021/03/14 02:35:41;;;;;;;2.20;2.10;;;;;;;3.93;74.49;100036.81;5335710;26;20039;-71
2021/03/14 02:38:06;;;;;;;2.15;2.05;;;;;;;3.85;74.08;100028.47;5334954;26;20110;-72
2021/03/14 02:40:33;;;;;;;2.28;2.17;;;;;;;3.92;74.19;100045.50;5334238;26;20047;-71
2021/03/14 02:42:58;;;;;;;2.15;2.05;;;;;;;3.90;74.69;100044.72;5333508;26;20525;-72
2021/03/14 02:45:25;;;;;;;2.33;2.22;;;;;;;3.88;74.68;100035.28;5335066;26;20039;-72
2021/03/14 02:47:51;;;;;;;2.30;2.20;;;;;;;3.93;74.56;100046.34;5333980;26;20728;-71
2021/03/14 02:50:17;;;;;;;2.10;2.00;;;;;;;3.25;74.47;99938.88;5336034;26;20050;-71
2021/03/14 02:52:43;;;;;;;2.20;2.10;;;;;;;3.85;74.09;100048.34;5334934;26;20500;-71
2021/03/14 02:55:09;;;;;;;2.20;2.10;;;;;;;3.79;75.27;100057.22;5335262;26;20039;-71
2021/03/14 02:57:35;;;;;;;2.20;2.10;;;;;;;3.27;74.35;99970.78;5333909;26;20050;-71
2021/03/14 03:00:00;;;;;;;2.10;2.00;;;;;;;3.73;74.54;100067.81;5336871;26;20414;-71
2021/03/14 03:02:26;;;;;;;2.20;2.10;;;;;;;3.68;74.84;100070.56;5334004;26;20057;-71
2021/03/14 03:04:51;;;;;;;2.10;2.00;;;;;;;3.56;74.91;100068.38;5336024;26;20045;-71
2021/03/14 03:07:17;;;;;;;3.12;2.92;;;;;;;3.55;75.18;100075.31;5335078;26;20039;-71
2021/03/14 03:09:45;;;;;;;2.10;2.00;;;;;;;3.28;76.06;100058.06;5335019;26;20143;-71
2021/03/14 03:12:10;;;;;;;2.20;2.10;;;;;;;3.42;75.83;100089.59;5336272;26;20053;-71
2021/03/14 03:14:36;;;;;;;2.20;2.10;;;;;;;3.27;76.27;100080.56;5335687;26;20048;-71
2021/03/14 03:17:01;;;;;;;2.10;2.00;;;;;;;3.32;76.20;100098.56;5335729;26;20043;-71
2021/03/14 03:19:27;;;;;;;1.90;1.85;;;;;;;3.26;76.33;100109.97;5339378;26;20120;-71
2021/03/14 03:21:52;;;;;;;1.80;1.80;;;;;;;3.15;76.28;100081.78;5341128;26;20051;-71
2021/03/14 03:24:17;;;;;;;2.20;2.10;;;;;;;3.26;76.81;100104.78;5334717;26;20528;-72
2021/03/14 03:26:45;;;;;;;2.20;2.10;;;;;;;3.27;76.44;100114.28;5335742;26;20035;-71
2021/03/14 03:29:11;;;;;;;2.28;2.17;;;;;;;3.28;76.72;100115.94;5335466;26;20047;-71
2021/03/14 03:31:37;;;;;;;2.10;2.00;;;;;;;3.33;76.62;100118.44;5335266;26;20582;-71
2021/03/14 03:34:04;;;;;;;2.15;2.05;;;;;;;2.52;76.30;99987.00;5335603;26;20066;-71
2021/03/14 03:36:29;;;;;;;2.20;2.10;;;;;;;3.33;76.58;100123.59;5334843;26;20050;-71
2021/03/14 03:38:54;;;;;;;2.10;2.00;;;;;;;3.22;76.25;100099.75;5334307;26;20035;-71
2021/03/14 03:41:20;;;;;;;2.10;2.00;;;;;;;3.20;76.65;100111.00;5334975;26;20270;-71
2021/03/14 03:43:45;;;;;;;2.25;2.15;;;;;;;3.00;76.07;100080.50;5335730;26;20188;-71
2021/03/14 03:46:11;;;;;;;2.03;1.92;;;;;;;3.39;76.94;100136.38;5333601;26;20459;-71
2021/03/14 03:48:43;;;;;;;2.10;2.00;;;;;;;3.39;76.66;100142.41;5335909;26;20651;-71
2021/03/14 03:51:08;;;;;;;2.10;2.00;;;;;;;2.38;76.23;99972.72;5335811;26;20389;-71
2021/03/14 03:53:34;;;;;;;2.20;2.10;;;;;;;3.15;76.41;100104.28;5334201;26;20551;-71
2021/03/14 03:55:59;;;;;;;2.20;2.10;;;;;;;3.45;75.83;100164.72;5334691;26;20057;-70
2021/03/14 03:58:24;;;;;;;2.20;2.10;;;;;;;3.45;75.80;100156.94;5332555;26;20168;-71
2021/03/14 04:00:50;;;;;;;2.10;2.00;;;;;;;3.26;76.21;100132.47;5333964;26;20054;-71
2021/03/14 04:03:16;;;;;;;2.00;1.90;;;;;;;3.52;76.15;100167.97;5335027;26;20034;-71
2021/03/14 04:05:41;;;;;;;2.00;1.90;;;;;;;3.45;75.98;100163.84;5334303;26;20035;-71
2021/03/14 04:08:07;;;;;;;2.08;1.98;;;;;;;3.50;75.90;100167.16;5334062;26;20252;-72
2021/03/14 04:10:32;;;;;;;2.20;2.10;;;;;;;3.14;76.21;100112.94;5335139;26;20414;-72
2021/03/14 04:12:58;;;;;;;2.40;2.30;;;;;;;3.44;76.10;100188.94;5334511;26;20055;-71
2021/03/14 04:15:25;;;;;;;2.00;1.90;;;;;;;1.73;76.47;99898.75;5334702;26;20511;-71
2021/03/14 04:17:51;;;;;;;2.10;2.00;;;;;;;3.44;76.54;100185.50;5334308;26;20092;-71
2021/03/14 04:20:21;;;;;;;2.10;2.00;;;;;;;3.49;75.95;100189.66;5333847;26;20055;-71
2021/03/14 04:22:49;;;;;;;2.20;2.10;;;;;;;3.47;75.72;100188.00;5335664;26;20451;-71
2021/03/14 04:25:14;;;;;;;2.10;2.00;;;;;;;3.51;75.72;100189.63;5335657;26;20055;-71
2021/03/14 04:27:40;;;;;;;2.20;2.10;;;;;;;2.98;76.34;100130.72;5334140;26;20133;-71
2021/03/14 04:30:06;;;;;;;2.03;1.92;;;;;;;3.37;75.76;100211.62;5336908;26;20047;-71
2021/03/14 04:32:32;;;;;;;2.10;2.00;;;;;;;2.10;75.50;99995.16;5334755;26;20035;-70
2021/03/14 04:34:57;;;;;;;2.00;1.90;;;;;;;3.43;75.59;100213.19;5334809;26;20059;-71
2021/03/14 04:37:22;;;;;;;2.10;2.00;;;;;;;3.39;76.50;100216.78;5334564;26;20053;-71
2021/03/14 04:39:48;;;;;;;2.20;2.10;;;;;;;3.39;75.88;100215.03;5335606;26;20066;-71
2021/03/14 04:42:13;;;;;;;2.12;2.03;;;;;;;3.43;75.92;100249.53;5334630;26;20028;-71
2021/03/14 04:44:39;;;;;;;2.10;2.00;;;;;;;3.06;76.33;100200.47;5335618;26;20054;-71
2021/03/14 04:47:04;;;;;;;2.03;1.92;;;;;;;3.29;75.92;100220.56;5334858;26;20453;-72
2021/03/14 04:49:30;;;;;;;2.10;2.00;;;;;;;3.19;76.36;100202.66;5335372;26;20053;-71
2021/03/14 04:51:55;;;;;;;1.80;1.80;;;;;;;3.29;75.88;100229.19;5334989;26;20105;-72
2021/03/14 04:54:20;;;;;;;2.00;1.90;;;;;;;3.18;76.04;100211.31;5336073;26;20493;-71
2021/03/14 04:56:46;;;;;;;2.10;2.00;;;;;;;1.52;75.84;99943.28;5334476;26;20035;-71
2021/03/14 04:59:12;;;;;;;2.00;1.90;;;;;;;3.26;76.33;100238.78;5333128;26;20252;-71
2021/03/14 05:01:38;;;;;;;2.17;2.08;;;;;;;3.35;75.89;100248.91;5334748;26;20057;-72
2021/03/14 05:04:04;;;;;;;2.20;2.10;;;;;;;3.28;76.05;100235.25;5335003;26;20039;-71
2021/03/14 05:06:29;;;;;;;3.70;2.05;;;;;;;3.31;76.39;100252.47;5334672;26;20042;-71
2021/03/14 05:08:54;;;;;;;2.10;2.00;;;;;;;3.32;75.95;100269.72;5335752;26;20271;-71
2021/03/14 05:11:20;;;;;;;2.12;2.03;;;;;;;3.22;76.11;100260.53;5334420;26;20516;-71
2021/03/14 05:13:46;;;;;;;2.10;2.00;;;;;;;1.93;76.11;100047.41;5335354;26;20078;-71
2021/03/14 05:16:13;;;;;;;2.15;2.05;;;;;;;3.02;76.56;100236.00;5335106;26;20165;-71
2021/03/14 05:18:39;;;;;;;2.10;2.00;;;;;;;2.95;75.75;100234.50;5316683;26;20031;-71
2021/03/14 05:21:05;;;;;;;2.15;2.05;;;;;;;1.49;76.29;100006.28;5335126;26;20050;-71
2021/03/14 05:23:33;;;;;;;2.17;2.08;;;;;;;3.11;76.12;100279.81;5336405;26;20043;-70
2021/03/14 05:26:00;;;;;;;2.20;2.10;;;;;;;2.88;75.90;100257.13;5334093;26;20128;-70
2021/03/14 05:28:25;;;;;;;2.15;2.05;;;;;;;2.84;76.77;100241.72;5337770;26;20043;-71
2021/03/14 05:30:50;;;;;;;2.17;2.08;;;;;;;3.02;76.04;100282.66;5337858;26;20051;-70
2021/03/14 05:33:16;;;;;;;2.20;2.10;;;;;;;1.85;76.06;100083.81;5334439;26;20054;-71
2021/03/14 05:35:41;;;;;;;1.95;1.90;;;;;;;2.79;76.44;100250.47;5334262;26;20936;-70
2021/03/14 05:38:07;;;;;;;2.10;2.00;;;;;;;2.99;76.42;100288.78;5335287;26;20034;-70
2021/03/14 05:40:32;;;;;;;2.10;2.00;;;;;;;2.98;77.15;100302.63;5334734;26;20623;-71
2021/03/14 05:42:57;;;;;;;2.00;1.90;;;;;;;2.06;76.15;100141.06;5335444;26;20050;-70
2021/03/14 05:45:23;;;;;;;2.00;1.90;;;;;;;3.04;76.71;100296.44;5335213;26;20500;-70
2021/03/14 05:47:48;;;;;;;2.20;2.10;;;;;;;2.54;76.30;100223.50;5333399;26;20042;-70
2021/03/14 05:50:18;;;;;;;2.10;2.00;;;;;;;3.04;76.94;100303.38;5316547;26;20550;-71
2021/03/14 05:52:44;;;;;;;2.10;2.00;;;;;;;3.03;76.41;100302.53;5334556;26;20177;-71
2021/03/14 05:55:14;;;;;;;2.10;2.00;;;;;;;3.02;76.51;100295.63;5334445;26;20542;-70
2021/03/14 05:57:50;;;;;;;2.20;2.10;;;;;;;3.10;76.18;100314.41;5334387;26;20150;-72
2021/03/14 06:00:24;;;;;;;2.00;1.90;;;;;;;2.55;76.89;100231.25;5333412;26;20112;-71
2021/03/14 06:02:50;;;;;;;2.20;2.10;;;;;;;3.06;76.97;100315.37;5334890;26;20038;-71
2021/03/14 06:05:15;;;;;;;2.00;1.90;;;;;;;2.53;77.26;100227.00;5334916;26;20048;-71
2021/03/14 06:07:41;;;;;;;1.90;1.85;;;;;;;2.81;76.70;100273.75;5334401;26;20035;-71
2021/03/14 06:10:07;;;;;;;2.20;2.10;;;;;;;3.07;75.96;100306.72;5334151;26;20092;-71
2021/03/14 06:12:32;;;;;;;2.00;1.90;;;;;;;3.15;76.76;100329.84;5334059;26;20055;-70
2021/03/14 06:14:58;;;;;;;2.20;2.10;;;;;;;2.83;76.70;100263.31;5335382;26;20053;-72
2021/03/14 06:17:26;;;;;;;2.10;2.00;;;;;;;2.99;76.77;100303.50;5334319;26;20492;-71
2021/03/14 06:19:51;;;;;;;2.10;2.00;;;;;;;3.37;76.20;100349.09;5335289;26;20114;-72
2021/03/14 06:22:24;;;;;;;2.05;1.95;;;;;;;2.90;76.04;100272.62;5334445;26;20031;-71
2021/03/14 06:24:53;;;;;;;2.12;2.03;;;;;;;3.37;76.14;100350.84;5334633;26;20434;-71
2021/03/14 06:27:51;;;;;;;2.20;2.10;;;;;;;3.25;76.28;100330.44;5334183;26;20094;-71
2021/03/14 06:30:16;;;;;;;2.00;1.90;;;;;;;3.20;76.36;100340.94;5337589;26;20380;-72
2021/03/14 06:32:42;;;;;;;2.10;2.00;;;;;;;3.32;76.51;100379.50;5333209;26;20045;-72
2021/03/14 06:35:08;;;;;;;2.10;2.00;;;;;;;3.35;76.07;100376.00;5334745;26;20165;-71
2021/03/14 06:37:33;;;;;;;2.10;2.00;;;;;;;3.22;76.28;100364.25;5334909;26;20039;-72
2021/03/14 06:40:06;;;;;;;2.10;2.00;;;;;;;3.38;76.27;100388.84;5334429;26;20066;-72
2021/03/14 06:42:31;;;;;;;;;;;;;;;3.43;75.62;100389.59;5335467;26;20635;-74
2021/03/14 06:45:15;;;;;;;2.00;1.90;;;;;;;3.32;76.25;100374.31;5353337;26;19956;-71
2021/03/14 06:47:48;;;;;;;2.03;1.92;;;;;;;3.44;76.27;100401.66;5334413;26;20529;-71
2021/03/14 06:50:40;;;;;;;2.00;1.90;;;;;;;3.52;75.98;100401.44;5336676;26;20171;-72
2021/03/14 06:53:13;;;;;;;2.10;2.00;;;;;;;3.43;75.22;100381.81;5326663;26;20040;-72
2021/03/14 06:55:42;;;;;;;2.40;2.30;;;;;;;3.00;75.30;100298.25;5332638;26;20035;-71
2021/03/14 06:58:20;;;;;;;2.00;1.90;;;;;;;3.74;74.54;100412.06;5335216;26;20544;-71
2021/03/14 07:01:14;;;;;;;2.20;2.10;;;;;;;3.80;74.92;100417.94;5332982;26;20057;-72
2021/03/14 07:03:57;;;;;;;2.12;2.03;;;;;;;3.92;75.10;100414.13;5352789;26;20841;-72
2021/03/14 07:06:24;;;;;;;2.10;2.00;;;;;;;3.88;74.33;100422.91;5334846;26;20059;-72
2021/03/14 07:08:54;;;;;;;2.20;2.10;;;;;;;3.92;74.14;100427.13;5353008;26;20061;-72
2021/03/14 07:11:44;;;;;;;2.10;2.00;;;;;;;3.62;74.28;100365.72;5334967;26;20066;-72
2021/03/14 07:14:11;;;;;;;2.08;1.98;;;;;;;3.66;73.68;100388.09;5335097;26;20312;-71
2021/03/14 07:16:41;;;;;;;2.25;2.15;;;;;;;4.14;74.02;100436.87;5333573;26;20055;-72
2021/03/14 07:19:08;;;;;;;2.00;1.90;;;;;;;4.05;73.47;100417.22;5335757;26;20128;-71
2021/03/14 07:21:33;;;;;;;2.10;2.00;;;;;;;4.22;73.85;100429.69;5334328;26;20299;-72
2021/03/14 07:23:58;;;;;;;2.05;1.95;;;;;;;4.42;73.32;100449.88;5333686;26;20474;-71
2021/03/14 07:26:40;;;;;;;2.03;1.92;;;;;;;4.39;72.96;100440.44;5334490;26;20043;-71
2021/03/14 07:29:07;;;;;;;2.25;2.15;;;;;;;4.46;72.04;100437.66;5334329;26;20042;-71
2021/03/14 07:31:33;;;;;;;2.20;2.10;;;;;;;4.52;72.38;100458.25;5333682;26;20360;-72
2021/03/14 07:33:58;;;;;;;2.20;2.10;;;;;;;4.54;72.78;100449.50;5334690;26;20515;-71
2021/03/14 07:36:24;;;;;;;2.30;2.20;;;;;;;4.77;72.54;100468.69;5334016;26;20256;-71
2021/03/14 07:38:49;;;;;;;2.30;2.20;;;;;;;4.28;72.99;100447.69;5334155;26;20046;-72
2021/03/14 07:41:14;;;;;;;2.10;2.00;;;;;;;4.44;73.94;100476.66;5334650;26;20035;-72
2021/03/14 07:43:40;;;;;;;2.20;2.10;;;;;;;4.36;74.43;100482.09;5338413;26;20035;-71
2021/03/14 07:46:05;;;;;;;2.30;2.20;;;;;;;4.00;73.82;100442.47;5339735;26;20512;-70
2021/03/14 07:48:30;;;;;;;2.20;2.10;;;;;;;3.39;75.21;100352.50;5334840;26;20130;-71
2021/03/14 07:50:56;;;;;;;3.20;2.92;;;;;;;3.97;75.37;100487.56;5333938;26;20094;-71
2021/03/14 07:53:21;;;;;;;2.30;2.20;;;;;;;4.18;75.11;100500.81;5333208;26;20030;-71
2021/03/14 07:55:51;;;;;;;2.20;2.10;;;;;;;4.13;74.92;100503.56;5335127;26;20042;-71
2021/03/14 07:58:21;;;;;;;2.30;2.20;;;;;;;4.11;74.99;100489.75;5334576;26;20386;-71
2021/03/14 08:00:47;;;;;;;2.10;2.00;;;;;;;3.80;74.26;100448.22;5335323;26;20146;-71
2021/03/14 08:03:12;;;;;;;2.10;2.00;;;;;;;4.32;74.50;100503.84;5333957;26;20062;-72
2021/03/14 08:05:40;;;;;;;2.20;2.10;;;;;;;4.54;74.72;100511.84;5334424;26;20066;-71
2021/03/14 08:08:26;;;;;;;2.17;2.08;;;;;;;2.88;73.74;100232.94;5353544;26;20046;-72
2021/03/14 08:10:54;;;;;;;2.40;2.30;;;;;;;4.63;73.90;100521.16;5338861;26;20043;-71
2021/03/14 08:13:33;;;;;;;2.28;2.17;;;;;;;4.58;73.30;100523.88;5328584;26;20042;-74
2021/03/14 08:15:59;;;;;;;2.40;2.30;;;;;;;4.26;73.94;100500.59;5351271;26;20165;-73
2021/03/14 08:18:44;;;;;;;3.20;3.10;;;;;;;4.31;74.97;100535.94;5326172;26;20578;-75
2021/03/14 08:21:36;;;;;;;2.30;2.20;;;;;;;4.28;75.66;100515.22;5344431;26;20138;-75
2021/03/14 08:24:02;;;;;;;2.20;2.10;;;;;;;3.50;76.10;100362.56;5302774;26;20043;-74
2021/03/14 08:26:28;;;;;;;2.17;2.08;;;;;;;4.65;76.27;100539.28;5329001;26;20539;-71
2021/03/14 08:28:54;;;;;;;2.28;2.17;;;;;;;4.78;75.21;100540.62;5329573;26;20047;-74
2021/03/14 08:31:41;;;;;;;2.55;2.45;;;;;;;4.83;75.09;100546.53;5344061;26;20065;-75
2021/03/14 08:34:08;;;;;;;2.28;2.17;;;;;;;4.63;75.86;100528.94;5347926;26;20501;-75
2021/03/14 08:36:37;;;;;;;2.20;2.10;;;;;;;4.72;75.93;100549.44;5310719;26;20106;-74
2021/03/14 08:39:04;;;;;;;2.12;2.03;;;;;;;4.77;76.25;100552.78;5330267;26;20053;-75
2021/03/14 08:41:31;;;;;;;2.30;2.20;;;;;;;4.72;76.00;100556.41;5330587;26;20513;-71
2021/03/14 08:43:57;;;;;;;2.65;2.55;;;;;;;4.56;76.23;100554.25;5329004;26;20039;-75
2021/03/14 08:46:50;;;;;;;2.30;2.20;;;;;;;3.38;76.35;100352.53;5339738;26;20078;-75
2021/03/14 08:49:18;;;;;;;;;;;;;;;4.65;76.65;100566.13;5352658;26;20389;-74
2021/03/14 08:51:44;;;;;;;2.20;2.10;;;;;;;4.19;77.13;100482.59;5352596;26;20011;-75
2021/03/14 08:54:09;;;;;;;2.30;2.20;;;;;;;4.74;76.85;100558.03;5349309;26;20055;-75
2021/03/14 08:56:35;;;;;;;2.30;2.20;;;;;;;4.10;76.37;100482.00;5339472;26;20039;-74
2021/03/14 08:59:20;;;;;;;2.33;2.22;;;;;;;3.44;76.98;100372.28;5311138;26;20109;-74
2021/03/14 09:01:45;;;;;;;2.20;2.10;;;;;;;3.36;77.68;100388.06;5312178;26;20058;-73
2021/03/14 09:04:37;;;;;;;2.20;2.10;;;;;;;4.57;77.73;100576.75;5327767;26;20036;-72
2021/03/14 09:07:07;;;;;;;2.20;2.10;;;;;;;4.64;77.34;100598.22;5304292;26;20108;-69
2021/03/14 09:09:33;;;;;;;2.40;2.30;;;;;;;4.46;76.93;100586.59;5293773;26;20567;-70
2021/03/14 09:12:02;;;;;;;2.40;2.30;;;;;;;3.46;77.80;100415.44;5302037;26;20350;-73
2021/03/14 09:14:44;;;;;;;2.20;2.10;;;;;;;4.60;77.84;100589.66;5330480;26;20516;-71
2021/03/14 09:17:11;;;;;;;2.40;2.30;;;;;;;4.66;77.34;100596.41;5318856;26;20061;-72
2021/03/14 09:19:53;;;;;;;2.30;2.20;;;;;;;4.71;77.62;100598.88;5335297;26;20536;-73
2021/03/14 09:22:23;;;;;;;2.40;2.30;;;;;;;3.18;77.66;100353.09;5329152;26;20035;-73
2021/03/14 09:24:55;;;;;;;2.40;2.30;;;;;;;4.57;77.89;100596.66;5329652;26;20104;-72
2021/03/14 09:27:41;;;;;;;2.40;2.30;;;;;;;4.33;77.93;100573.13;5326497;26;20397;-75
2021/03/14 09:30:17;;;;;;;2.22;2.12;;;;;;;4.59;78.09;100615.66;5353707;26;20046;-73
2021/03/14 09:32:43;;;;;;;2.20;2.10;;;;;;;4.42;78.76;100628.31;5330742;26;20064;-72
2021/03/14 09:35:12;;;;;;;2.40;2.30;;;;;;;4.51;78.86;100620.25;5328684;26;20167;-72
2021/03/14 09:37:37;;;;;;;2.20;2.10;;;;;;;4.54;78.49;100627.97;5348937;26;20461;-72
2021/03/14 09:40:13;;;;;;;2.30;2.20;;;;;;;3.55;78.58;100489.59;5353055;26;20053;-71
2021/03/14 09:42:43;;;;;;;2.20;2.10;;;;;;;4.22;79.46;100595.09;5331251;26;20167;-72
2021/03/14 09:45:21;;;;;;;2.40;2.30;;;;;;;4.47;79.86;100650.69;5330523;26;20035;-73
2021/03/14 09:48:10;;;;;;;2.20;2.10;;;;;;;4.51;79.51;100656.63;5329209;26;20288;-74
2021/03/14 09:50:43;;;;;;;2.10;2.00;;;;;;;4.55;79.57;100646.13;5311930;26;20039;-72
2021/03/14 09:53:08;;;;;;;;;;;;;;;4.66;79.01;100651.00;5334645;26;20057;-73
2021/03/14 09:55:36;;;;;;;2.30;2.20;;;;;;;4.97;78.93;100652.69;5351023;26;20321;-74
2021/03/14 09:58:01;;;;;;;2.20;2.10;;;;;;;5.05;77.91;100648.16;5331285;26;20043;-74
2021/03/14 10:00:31;;;;;;;2.20;2.10;;;;;;;5.50;76.29;100654.56;5334052;26;20559;-77
2021/03/14 10:03:04;;;;;;;2.40;2.30;;;;;;;5.89;75.58;100661.97;5310455;26;20578;-73
2021/03/14 10:05:48;;;;;;;2.25;2.15;;;;;;;5.79;72.95;100640.59;5325841;26;20039;-75
2021/03/14 10:08:21;;;;;;;2.50;2.40;;;;;;;5.64;73.83;100670.59;5329461;26;20043;-72
2021/03/14 10:10:47;;;;;;;2.35;2.25;;;;;;;5.49;74.92;100656.34;5332752;26;20096;-72
2021/03/14 10:13:13;;;;;;;2.58;2.47;;;;;;;5.31;73.94;100647.34;5329222;26;20104;-73
2021/03/14 10:15:38;;;;;;;2.78;2.67;;;;;;;4.88;75.53;100580.19;5330241;26;20051;-74
2021/03/14 10:18:04;;;;;;;2.40;2.30;;;;;;;4.75;76.03;100611.75;5330856;26;20048;-74
2021/03/14 10:20:30;;;;;;;2.35;2.25;;;;;;;5.15;76.29;100654.78;5333724;26;20040;-73
2021/03/14 10:23:05;;;;;;;2.22;2.12;;;;;;;4.84;76.26;100622.78;5311125;26;20136;-73
2021/03/14 10:25:33;;;;;;;2.50;2.40;;;;;;;5.23;76.04;100682.28;5328983;26;20082;-75
2021/03/14 10:28:18;;;;;;;2.20;2.10;;;;;;;5.16;76.58;100656.47;5334433;26;20044;-74
2021/03/14 10:30:45;;;;;;;2.40;2.30;;;;;;;5.13;76.68;100674.78;5333617;26;20065;-77
2021/03/14 10:33:27;;;;;;;2.30;2.20;;;;;;;4.89;77.42;100631.28;5332994;26;20050;-76
2021/03/14 10:35:59;;;;;;;2.30;2.20;;;;;;;4.47;77.00;100527.69;5333365;26;20104;-76
2021/03/14 10:38:24;;;;;;;2.25;2.15;;;;;;;4.19;75.62;100523.31;5333826;26;20047;-76
2021/03/14 10:40:50;;;;;;;2.50;2.40;;;;;;;4.80;76.23;100615.06;5311646;26;20343;-76
2021/03/14 10:43:25;;;;;;;2.40;2.30;;;;;;;5.19;77.10;100708.41;5331273;26;20061;-76
2021/03/14 10:45:51;;;;;;;2.33;2.22;;;;;;;5.49;76.04;100692.78;5331612;26;20619;-76
2021/03/14 10:48:17;;;;;;;2.40;2.30;;;;;;;5.52;74.53;100684.00;5351817;26;20231;-76
2021/03/14 10:50:42;;;;;;;2.33;2.22;;;;;;;6.04;74.69;100710.16;5333672;26;20055;-76
2021/03/14 10:53:15;;;;;;;2.40;2.30;;;;;;;5.88;74.22;100700.19;5333921;26;20053;-76
2021/03/14 10:55:41;;;;;;;;;;;;;;;5.12;73.07;100563.81;5331099;26;20038;-77
2021/03/14 10:58:10;;;;;;;2.20;2.10;;;;;;;5.82;74.66;100716.03;5331146;26;19957;-76
2021/03/14 11:00:37;;;;;;;2.50;2.40;;;;;;;5.85;73.59;100686.41;5331391;26;20043;-76
2021/03/14 11:03:11;;;;;;;3.33;3.22;;;;;;;6.31;73.23;100717.00;5328396;26;20414;-76
2021/03/14 11:05:37;;;;;;;2.40;2.30;;;;;;;6.13;73.24;100726.34;5330387;26;20592;-76
2021/03/14 11:08:03;;;;;;;3.53;3.33;;;;;;;5.33;73.82;100551.00;5326726;26;20051;-76
2021/03/14 11:10:28;;;;;;;2.30;2.20;;;;;;;6.29;73.16;100725.78;5329557;26;20261;-76
2021/03/14 11:12:54;;;;;;;2.50;2.40;;;;;;;6.13;73.54;100691.59;5325961;26;20043;-76
2021/03/14 11:15:27;;;;;;;2.70;2.60;;;;;;;6.42;72.42;100674.13;5332341;26;20386;-76
2021/03/14 11:17:53;;;;;;;2.50;2.40;;;;;;;6.56;71.00;100713.56;5333607;26;20051;-75
2021/03/14 11:20:19;;;;;;;2.40;2.30;;;;;;;6.57;71.07;100697.00;5334468;26;20393;-76
2021/03/14 11:22:48;;;;;;;2.50;2.40;;;;;;;6.44;72.93;100714.00;5332384;26;20047;-76
2021/03/14 11:25:14;;;;;;;2.58;2.47;;;;;;;6.65;72.32;100726.28;5333315;26;20154;-76
2021/03/14 11:27:39;;;;;;;3.33;3.22;;;;;;;6.71;70.64;100728.66;5328282;26;20109;-76
2021/03/14 11:30:05;;;;;;;3.83;3.67;;;;;;;6.38;71.28;100671.59;5330927;26;20039;-75
2021/03/14 11:32:30;;;;;;;2.80;2.70;;;;;;;6.89;71.56;100692.41;5333089;26;20043;-76
2021/03/14 11:34:56;;;;;;;2.97;2.87;;;;;;;7.07;70.73;100724.78;5333075;26;20043;-76
2021/03/14 11:37:21;;;;;;;2.72;2.62;;;;;;;6.44;71.07;100667.09;5329471;26;20148;-77
2021/03/14 11:39:46;;;;;;;2.80;2.70;;;;;;;7.09;71.20;100723.81;5335767;26;20043;-77
2021/03/14 11:42:12;;;;;;;2.50;2.40;;;;;;;6.90;69.60;100713.22;5335516;26;20612;-76